Aviation Digital Data Service (ADDS)

Output produced by METARs form (2319 UTC 24 May 2015)
found at http://aviationweather.gov/adds/metars/
 
KPHL 242019Z 2420/2524 22010KT P6SM FEW060 SCT250 
     FM250200 19006KT P6SM BKN200 
     FM251500 22015G22KT P6SM FEW050 SCT200